Time;durP1;ratioP1;P1;durP2;ratioP2;P2;SDS_P1;SDS_P2;PMS_P1;PMS_P2;Temp;Humidity;BMP_temperature;BMP_pressure;BME280_temperature;BME280_humidity;BME280_pressure;Samples;Min_cycle;Max_cycle;Signal;HPM_P1;HPM_P2
2023/11/13 00:00:11;;;;;;;10.63;8.13;;;;;;;6.02;77.35;95700.00;5036213;28;20694;-73
2023/11/13 00:02:37;;;;;;;11.57;8.80;;;;;;;5.98;77.27;95696.69;5028272;28;20406;-72
2023/11/13 00:05:04;;;;;;;16.63;9.10;;;;;;;5.98;77.33;95704.50;5027624;28;20429;-72
2023/11/13 00:07:30;;;;;;;15.83;10.13;;;;;;;6.00;77.46;95700.09;5032219;28;20840;-73
2023/11/13 00:09:55;;;;;;;10.93;8.53;;;;;;;6.04;77.56;95690.38;5027628;28;20430;-73
2023/11/13 00:12:20;;;;;;;12.87;8.40;;;;;;;6.05;77.21;95689.50;5026971;28;20647;-72
2023/11/13 00:14:46;;;;;;;10.57;9.10;;;;;;;6.05;77.48;95690.34;5027598;28;20198;-73
2023/11/13 00:17:11;;;;;;;12.83;9.30;;;;;;;6.13;77.21;95684.84;5028001;28;20316;-73
2023/11/13 00:19:37;;;;;;;14.90;9.10;;;;;;;6.10;77.36;95679.75;5027812;28;20211;-73
2023/11/13 00:22:03;;;;;;;14.10;9.50;;;;;;;6.07;77.66;95683.31;5023476;28;20190;-73
2023/11/13 00:24:28;;;;;;;10.90;9.00;;;;;;;6.11;77.69;95686.66;5028185;28;20437;-73
2023/11/13 00:26:54;;;;;;;10.03;8.87;;;;;;;6.08;78.07;95684.16;5035986;28;20187;-73
2023/11/13 00:29:19;;;;;;;10.53;8.40;;;;;;;6.20;78.06;95693.28;5046931;28;20194;-73
2023/11/13 00:31:45;;;;;;;10.60;8.97;;;;;;;6.31;77.23;95691.94;5047827;28;20194;-73
2023/11/13 00:34:10;;;;;;;9.73;8.70;;;;;;;6.25;77.57;95700.00;5029980;28;20651;-72
2023/11/13 00:36:36;;;;;;;14.50;8.97;;;;;;;6.24;78.04;95694.84;5028047;28;20168;-73
2023/11/13 00:39:02;;;;;;;11.67;8.30;;;;;;;6.34;78.11;95694.44;5027159;28;20175;-73
2023/11/13 00:41:31;;;;;;;8.77;7.57;;;;;;;6.33;77.43;95700.56;5027623;28;20218;-73
2023/11/13 00:43:57;;;;;;;12.37;7.90;;;;;;;6.29;77.99;95703.34;5026444;28;20973;-73
2023/11/13 00:46:23;;;;;;;8.87;7.90;;;;;;;6.32;78.16;95688.44;5027604;28;20406;-73
2023/11/13 00:48:48;;;;;;;9.57;7.73;;;;;;;6.31;78.08;95691.94;5027950;28;20171;-72
2023/11/13 00:51:14;;;;;;;7.60;6.73;;;;;;;6.34;78.51;95686.63;5027613;28;20209;-72
2023/11/13 00:53:40;;;;;;;7.83;7.00;;;;;;;6.49;78.07;95690.38;5028149;28;20954;-73
2023/11/13 00:56:06;;;;;;;8.00;5.77;;;;;;;6.51;78.19;95683.34;5026226;28;20515;-73
2023/11/13 00:58:36;;;;;;;8.83;6.40;;;;;;;6.50;77.96;95686.88;5027931;28;20217;-73
2023/11/13 01:01:05;;;;;;;9.20;6.70;;;;;;;6.48;78.19;95693.91;5027482;28;20458;-73
2023/11/13 01:03:31;;;;;;;12.10;7.57;;;;;;;6.45;78.49;95698.38;5027581;28;20437;-73
2023/11/13 01:05:57;;;;;;;10.87;6.30;;;;;;;6.44;78.74;95702.75;5027304;28;20921;-73
2023/11/13 01:08:23;;;;;;;12.40;7.37;;;;;;;6.49;78.48;95689.53;5027431;28;20411;-72
2023/11/13 01:10:49;;;;;;;9.07;6.80;;;;;;;6.38;78.79;95695.19;5027326;28;20630;-72
2023/11/13 01:13:14;;;;;;;13.70;7.07;;;;;;;6.45;79.12;95698.38;5028228;28;20414;-72
2023/11/13 01:15:41;;;;;;;8.73;6.30;;;;;;;6.53;79.03;95712.81;5034573;28;20199;-72
2023/11/13 01:18:09;;;;;;;10.23;7.27;;;;;;;6.49;79.50;95706.00;5027589;28;20529;-73
2023/11/13 01:20:34;;;;;;;9.73;6.67;;;;;;;6.62;78.78;95701.19;5027144;28;20461;-72
2023/11/13 01:23:00;;;;;;;10.53;6.90;;;;;;;6.62;78.87;95697.72;5027101;28;20414;-73
2023/11/13 01:25:28;;;;;;;7.53;6.77;;;;;;;6.66;79.74;95681.03;5026773;28;20171;-73
2023/11/13 01:27:54;;;;;;;12.03;7.20;;;;;;;6.53;79.56;95676.31;5027034;28;20190;-73
2023/11/13 01:30:19;;;;;;;14.23;6.33;;;;;;;6.55;79.92;95677.09;5026790;28;20446;-73
2023/11/13 01:32:44;;;;;;;8.53;6.67;;;;;;;6.75;79.25;95671.09;5021103;28;20259;-73
2023/11/13 01:35:10;;;;;;;7.80;6.97;;;;;;;6.69;79.54;95673.97;5006820;28;20173;-72
2023/11/13 01:37:35;;;;;;;11.70;7.40;;;;;;;6.42;80.89;95678.50;5007377;28;20516;-72
2023/11/13 01:40:03;;;;;;;10.70;7.30;;;;;;;6.33;80.99;95674.50;5006990;28;20291;-73
2023/11/13 01:42:28;;;;;;;14.17;7.93;;;;;;;6.51;80.57;95665.09;5007022;28;20196;-73
2023/11/13 01:44:55;;;;;;;13.37;8.67;;;;;;;6.25;82.35;95673.09;5006856;28;21275;-72
2023/11/13 01:47:21;;;;;;;9.93;7.27;;;;;;;6.37;82.09;95680.44;5007189;28;20176;-72
2023/11/13 01:49:46;;;;;;;11.70;8.90;;;;;;;6.53;80.81;95675.47;5006786;28;20419;-73
2023/11/13 01:52:13;;;;;;;9.80;7.57;;;;;;;6.62;81.05;95672.50;5007069;28;20674;-72
2023/11/13 01:54:38;;;;;;;11.27;8.03;;;;;;;6.57;80.95;95664.88;5006517;28;20172;-73
2023/11/13 01:57:07;;;;;;;9.80;6.90;;;;;;;6.61;81.19;95649.09;5006901;28;20413;-73
2023/11/13 01:59:34;;;;;;;8.30;7.37;;;;;;;6.56;81.87;95631.03;5007106;28;20192;-73
2023/11/13 02:02:03;;;;;;;11.80;7.63;;;;;;;6.56;81.96;95628.41;5006740;28;20506;-73
2023/11/13 02:04:28;;;;;;;10.03;7.20;;;;;;;6.64;81.64;95630.72;5007055;28;20946;-73
2023/11/13 02:06:54;;;;;;;13.20;8.60;;;;;;;6.62;81.60;95622.13;5007230;28;20415;-73
2023/11/13 02:09:20;;;;;;;11.27;8.87;;;;;;;6.53;82.25;95621.56;5006903;28;20199;-73
2023/11/13 02:11:46;;;;;;;11.07;8.27;;;;;;;6.61;81.88;95623.03;5006939;28;20180;-72
2023/11/13 02:14:12;;;;;;;11.70;6.90;;;;;;;6.68;81.36;95624.47;5006682;28;20508;-73
2023/11/13 02:16:38;;;;;;;9.57;8.53;;;;;;;6.73;81.71;95623.38;5006758;28;20974;-72
2023/11/13 02:19:03;;;;;;;9.37;7.70;;;;;;;6.76;81.19;95609.38;5006578;28;20245;-72
2023/11/13 02:21:29;;;;;;;13.00;8.63;;;;;;;6.72;81.96;95618.22;5006562;28;20838;-72
2023/11/13 02:23:55;;;;;;;9.20;7.90;;;;;;;6.79;81.67;95625.72;5006658;28;20168;-73
2023/11/13 02:26:23;;;;;;;12.10;8.73;;;;;;;6.93;81.45;95629.53;5006605;28;20203;-72
2023/11/13 02:28:49;;;;;;;12.63;9.90;;;;;;;6.93;81.75;95625.16;5007033;28;20422;-73
2023/11/13 02:31:14;;;;;;;10.23;7.90;;;;;;;6.89;82.03;95613.16;5006487;28;20426;-73
2023/11/13 02:33:40;;;;;;;8.40;7.20;;;;;;;6.87;81.82;95608.91;5019736;28;20234;-72
2023/11/13 02:36:06;;;;;;;11.97;9.57;;;;;;;6.93;81.45;95613.88;5026386;28;20180;-72
2023/11/13 02:38:31;;;;;;;11.67;8.20;;;;;;;6.98;81.67;95617.13;5025215;28;20171;-72
2023/11/13 02:40:57;;;;;;;12.60;9.60;;;;;;;6.99;81.24;95618.81;5025990;28;20211;-72
2023/11/13 02:43:23;;;;;;;8.77;7.67;;;;;;;6.94;82.21;95611.19;5026095;28;20210;-73
2023/11/13 02:45:48;;;;;;;12.27;8.53;;;;;;;6.93;81.46;95604.28;5025959;28;20938;-72
2023/11/13 02:48:13;;;;;;;11.63;8.07;;;;;;;6.89;81.89;95591.44;5025864;28;20171;-72
2023/11/13 02:50:40;;;;;;;8.90;8.00;;;;;;;6.89;81.89;95584.47;5026255;28;20709;-72
2023/11/13 02:53:05;;;;;;;11.10;8.77;;;;;;;6.92;82.05;95575.66;5025711;28;20171;-73
2023/11/13 02:55:30;;;;;;;10.90;8.40;;;;;;;6.96;82.46;95585.88;5024379;28;20418;-73
2023/11/13 02:57:56;;;;;;;11.13;7.60;;;;;;;6.89;82.81;95581.84;5026507;28;20193;-73
2023/11/13 03:00:21;;;;;;;11.13;8.73;;;;;;;6.88;83.16;95574.09;5018487;28;20216;-73
2023/11/13 03:02:47;;;;;;;11.23;8.50;;;;;;;6.99;83.25;95575.34;5021293;28;20184;-72
2023/11/13 03:05:12;;;;;;;11.03;8.00;;;;;;;7.03;82.88;95580.41;5028919;28;20168;-72
2023/11/13 03:07:38;;;;;;;20.57;9.30;;;;;;;7.14;81.73;95584.25;5029281;28;20185;-72
2023/11/13 03:10:05;;;;;;;15.10;7.80;;;;;;;7.16;82.18;95586.81;5029371;28;20278;-72
2023/11/13 03:12:31;;;;;;;12.17;7.50;;;;;;;7.12;82.26;95580.03;5029085;28;20172;-72
2023/11/13 03:14:57;;;;;;;22.53;9.10;;;;;;;7.17;82.96;95575.44;5028629;28;20449;-73
2023/11/13 03:17:22;;;;;;;11.53;7.50;;;;;;;7.12;83.48;95572.19;5029054;28;20176;-73
2023/11/13 03:19:47;;;;;;;9.80;8.33;;;;;;;7.26;83.17;95574.22;5029251;28;20230;-72
2023/11/13 03:22:14;;;;;;;15.20;8.43;;;;;;;7.20;83.29;95567.47;5029239;28;20211;-72
2023/11/13 03:24:39;;;;;;;12.60;8.00;;;;;;;7.24;82.78;95557.75;5029176;28;20902;-72
2023/11/13 03:27:05;;;;;;;10.60;7.00;;;;;;;7.29;82.58;95566.22;5029086;28;20187;-72
2023/11/13 03:29:30;;;;;;;10.27;7.63;;;;;;;7.31;83.70;95554.81;5029280;28;20538;-72
2023/11/13 03:31:56;;;;;;;9.37;7.77;;;;;;;7.33;83.73;95566.03;5028892;28;20923;-73
2023/11/13 03:34:21;;;;;;;10.40;8.30;;;;;;;7.38;83.33;95566.66;5028846;28;20175;-72
2023/11/13 03:36:47;;;;;;;11.67;8.43;;;;;;;7.39;84.36;95571.00;5028636;28;20668;-73
2023/11/13 03:39:13;;;;;;;9.33;6.87;;;;;;;7.50;83.35;95583.53;5028615;28;20183;-73
2023/11/13 03:41:40;;;;;;;12.00;7.37;;;;;;;7.52;84.52;95588.72;5028769;28;20430;-73
2023/11/13 03:44:06;;;;;;;17.20;7.57;;;;;;;7.59;83.91;95592.75;5029114;28;20484;-73
2023/11/13 03:46:32;;;;;;;17.20;7.37;;;;;;;7.60;84.54;95594.41;5029510;28;20425;-72
2023/11/13 03:48:57;;;;;;;9.23;7.00;;;;;;;7.68;85.33;95599.28;5028749;28;20410;-73
2023/11/13 03:51:23;;;;;;;9.23;6.73;;;;;;;7.71;84.95;95600.00;5028342;28;20573;-72
2023/11/13 03:53:50;;;;;;;7.77;5.57;;;;;;;7.83;85.28;95590.78;5028769;28;20172;-73
2023/11/13 03:56:16;;;;;;;6.97;5.70;;;;;;;7.97;86.47;95597.97;5028200;28;20191;-73
2023/11/13 03:58:42;;;;;;;7.73;6.17;;;;;;;8.00;86.88;95600.44;5028699;28;20437;-72
2023/11/13 04:01:08;;;;;;;6.57;5.10;;;;;;;8.04;87.77;95592.38;5028422;28;20476;-73
2023/11/13 04:03:33;;;;;;;5.07;4.40;;;;;;;8.19;88.09;95601.25;5026923;28;20191;-73
2023/11/13 04:05:59;;;;;;;6.73;4.50;;;;;;;8.26;87.87;95596.59;5028551;28;21120;-72
2023/11/13 04:08:24;;;;;;;5.10;3.90;;;;;;;8.29;87.88;95591.22;5028875;28;20604;-73
2023/11/13 04:10:50;;;;;;;5.20;3.93;;;;;;;8.33;88.26;95582.31;5028980;28;20238;-71
2023/11/13 04:13:16;;;;;;;6.67;4.00;;;;;;;8.47;88.29;95582.50;5029216;28;20823;-72
2023/11/13 04:15:42;;;;;;;4.70;3.90;;;;;;;8.50;88.02;95583.28;5036020;28;20233;-73
2023/11/13 04:18:07;;;;;;;5.37;3.97;;;;;;;8.51;88.61;95590.22;5041615;28;20414;-73
2023/11/13 04:20:33;;;;;;;4.10;2.97;;;;;;;8.66;89.06;95581.63;5040671;28;20203;-73
2023/11/13 04:22:58;;;;;;;5.20;2.63;;;;;;;8.80;89.07;95570.47;5035096;28;20249;-73
2023/11/13 04:25:24;;;;;;;5.83;2.67;;;;;;;8.89;88.74;95570.00;5028462;28;20199;-71
2023/11/13 04:27:49;;;;;;;5.30;2.77;;;;;;;8.99;88.88;95566.00;5028090;28;20202;-72
2023/11/13 04:30:15;;;;;;;4.20;2.20;;;;;;;9.06;88.84;95570.00;5028069;28;20279;-72
2023/11/13 04:32:43;;;;;;;3.87;3.30;;;;;;;9.16;88.34;95562.50;5022596;28;20235;-73
2023/11/13 04:35:08;;;;;;;8.70;3.17;;;;;;;9.21;88.61;95575.34;5007913;28;20741;-72
2023/11/13 04:37:34;;;;;;;6.50;2.50;;;;;;;9.22;88.94;95569.22;5008512;28;20408;-72
2023/11/13 04:39:59;;;;;;;11.07;2.93;;;;;;;9.35;88.49;95578.09;5008651;28;21001;-72
2023/11/13 04:42:24;;;;;;;6.47;2.70;;;;;;;9.26;88.85;95586.44;5008655;28;20204;-72
2023/11/13 04:44:50;;;;;;;7.33;2.50;;;;;;;9.25;89.00;95603.06;5008684;28;20259;-73
2023/11/13 04:47:15;;;;;;;5.33;2.23;;;;;;;9.35;88.36;95604.28;5008448;28;20176;-72
2023/11/13 04:49:41;;;;;;;7.27;2.73;;;;;;;9.33;88.30;95620.09;5008251;28;20196;-72
2023/11/13 04:52:07;;;;;;;5.30;2.43;;;;;;;9.39;88.74;95621.53;5008162;28;20204;-72
2023/11/13 04:54:33;;;;;;;6.53;2.30;;;;;;;9.49;88.24;95617.50;5007522;28;20438;-72
2023/11/13 04:56:58;;;;;;;5.70;2.60;;;;;;;9.48;88.38;95626.31;5007523;28;20822;-72
2023/11/13 04:59:24;;;;;;;7.80;3.13;;;;;;;9.52;88.35;95635.69;5007171;28;20200;-71
2023/11/13 05:01:50;;;;;;;3.97;2.40;;;;;;;9.53;88.13;95644.41;5007482;28;20183;-73
2023/11/13 05:04:16;;;;;;;5.13;2.80;;;;;;;9.52;88.12;95654.03;5007564;28;20423;-73
2023/11/13 05:06:43;;;;;;;6.33;2.80;;;;;;;9.59;88.47;95648.47;5007247;28;20820;-73
2023/11/13 05:09:09;;;;;;;9.60;3.43;;;;;;;9.64;87.53;95642.06;5007490;28;20191;-73
2023/11/13 05:11:35;;;;;;;7.03;2.97;;;;;;;9.76;87.01;95640.59;5007195;28;20540;-72
2023/11/13 05:14:00;;;;;;;12.47;3.13;;;;;;;9.72;87.38;95636.44;5007695;28;20439;-72
2023/11/13 05:16:28;;;;;;;11.60;2.97;;;;;;;9.63;87.77;95634.28;5007240;28;20531;-72
2023/11/13 05:18:55;;;;;;;10.73;4.90;;;;;;;9.75;87.54;95636.25;5007058;28;20169;-73
2023/11/13 05:21:21;;;;;;;6.17;3.00;;;;;;;9.77;86.91;95641.44;5007027;28;20475;-73
2023/11/13 05:23:47;;;;;;;8.50;2.70;;;;;;;9.74;87.01;95632.78;5007329;28;20419;-73
2023/11/13 05:26:13;;;;;;;9.80;3.83;;;;;;;9.66;87.79;95642.84;5006718;28;20422;-72
2023/11/13 05:28:39;;;;;;;8.87;3.30;;;;;;;9.72;87.51;95634.66;5007247;28;20427;-71
2023/11/13 05:31:04;;;;;;;8.53;2.77;;;;;;;9.64;88.27;95649.94;5007118;28;21326;-73
2023/11/13 05:33:30;;;;;;;7.50;3.03;;;;;;;9.73;86.95;95646.84;5018988;28;20183;-73
2023/11/13 05:35:56;;;;;;;10.83;3.17;;;;;;;9.72;87.61;95653.00;5027078;28;20244;-72
2023/11/13 05:38:21;;;;;;;6.50;2.60;;;;;;;9.80;87.08;95657.81;5027087;28;20554;-72
2023/11/13 05:40:47;;;;;;;7.97;2.90;;;;;;;9.77;87.13;95668.47;5026947;28;20466;-73
2023/11/13 05:43:12;;;;;;;9.03;2.53;;;;;;;9.76;87.36;95666.78;5016089;28;20570;-72
2023/11/13 05:45:38;;;;;;;11.80;3.40;;;;;;;9.80;87.17;95668.28;5024250;28;20657;-74
2023/11/13 05:48:04;;;;;;;7.77;2.70;;;;;;;9.76;87.23;95666.78;5026330;28;20183;-74
2023/11/13 05:50:29;;;;;;;10.40;3.43;;;;;;;9.80;86.81;95663.06;5025421;28;20289;-73
2023/11/13 05:52:55;;;;;;;12.17;3.53;;;;;;;9.74;87.15;95666.03;5023833;28;20921;-71
2023/11/13 05:55:24;;;;;;;7.23;2.67;;;;;;;9.74;87.15;95668.63;5024091;28;20171;-73
2023/11/13 05:57:50;;;;;;;9.93;3.07;;;;;;;9.83;87.15;95677.81;5024252;28;20171;-73
2023/11/13 06:00:18;;;;;;;5.60;2.67;;;;;;;9.77;86.85;95671.09;5024407;28;20465;-73
2023/11/13 06:02:44;;;;;;;6.90;3.70;;;;;;;9.70;87.51;95681.03;5024255;28;20426;-73
2023/11/13 06:05:09;;;;;;;9.13;3.63;;;;;;;9.69;87.54;95681.13;5023723;28;20419;-72
2023/11/13 06:07:37;;;;;;;8.87;3.40;;;;;;;9.76;86.56;95666.78;5023997;28;20921;-73
2023/11/13 06:10:07;;;;;;;14.50;3.77;;;;;;;9.75;87.16;95665.06;5023556;28;20313;-72
2023/11/13 06:12:33;;;;;;;17.73;5.53;;;;;;;9.71;86.63;95671.44;5024028;28;20418;-72
2023/11/13 06:14:59;;;;;;;9.63;3.70;;;;;;;9.69;86.90;95671.50;5023680;28;20517;-73
2023/11/13 06:17:25;;;;;;;12.40;4.77;;;;;;;9.73;86.92;95670.41;5024431;28;20583;-73
2023/11/13 06:19:51;;;;;;;13.23;3.87;;;;;;;9.80;86.21;95668.28;5021643;28;20211;-73
2023/11/13 06:22:17;;;;;;;7.40;3.30;;;;;;;9.87;86.21;95668.81;5021017;28;20433;-72
2023/11/13 06:24:43;;;;;;;8.23;3.43;;;;;;;9.90;85.75;95681.78;5028752;28;20425;-73
2023/11/13 06:27:09;;;;;;;13.97;3.10;;;;;;;9.90;85.66;95685.25;5025933;28;20219;-72
2023/11/13 06:29:35;;;;;;;10.60;3.87;;;;;;;9.88;85.54;95676.63;5023612;28;20788;-73
2023/11/13 06:32:01;;;;;;;9.50;3.90;;;;;;;9.92;85.47;95669.44;5021731;28;20458;-73
2023/11/13 06:34:28;;;;;;;5.50;3.30;;;;;;;9.93;85.25;95665.91;5035859;28;20190;-72
2023/11/13 06:36:53;;;;;;;11.30;3.87;;;;;;;9.87;85.40;95669.66;5027774;28;20951;-73
2023/11/13 06:39:19;;;;;;;10.53;3.97;;;;;;;9.79;86.04;95669.25;5045030;28;20441;-72
2023/11/13 06:41:45;;;;;;;5.10;2.80;;;;;;;9.93;85.55;95664.13;5029138;28;20300;-70
2023/11/13 06:44:10;;;;;;;10.73;3.37;;;;;;;9.93;85.38;95665.91;5030341;28;20218;-69
2023/11/13 06:46:36;;;;;;;12.67;3.57;;;;;;;9.92;85.29;95657.19;5041665;28;20878;-71
2023/11/13 06:49:02;;;;;;;5.90;2.10;;;;;;;9.95;85.07;95667.50;5033520;28;20187;-71
2023/11/13 06:51:27;;;;;;;6.20;3.17;;;;;;;9.95;85.20;95672.75;5027521;28;20214;-70
2023/11/13 06:53:52;;;;;;;8.37;3.20;;;;;;;9.89;85.44;95677.47;5028278;28;20179;-71
2023/11/13 06:56:18;;;;;;;9.47;2.77;;;;;;;9.91;85.38;95691.34;5035680;28;20191;-70
2023/11/13 06:58:44;;;;;;;5.53;3.00;;;;;;;9.88;85.48;95691.50;5030734;28;20615;-71
2023/11/13 07:01:09;;;;;;;10.20;2.90;;;;;;;9.89;85.71;95691.41;5036828;28;20267;-71
2023/11/13 07:03:35;;;;;;;9.20;2.90;;;;;;;9.92;85.70;95680.78;5037064;28;20725;-72
2023/11/13 07:06:01;;;;;;;9.97;3.10;;;;;;;9.89;85.57;95680.91;5028697;28;20190;-71
2023/11/13 07:08:26;;;;;;;6.83;4.13;;;;;;;9.86;86.40;95681.09;5027736;28;20719;-72
2023/11/13 07:10:52;;;;;;;5.33;2.57;;;;;;;9.94;85.56;95671.06;5035869;28;20202;-70
2023/11/13 07:13:18;;;;;;;11.33;3.20;;;;;;;9.83;86.25;95677.81;5039860;28;20245;-69
2023/11/13 07:15:44;;;;;;;12.40;3.10;;;;;;;9.79;86.56;95689.34;5036227;28;20198;-71
2023/11/13 07:18:09;;;;;;;7.93;3.63;;;;;;;9.82;86.02;95678.72;5026879;28;20669;-70
2023/11/13 07:20:35;;;;;;;10.27;3.00;;;;;;;9.81;86.24;95680.50;5039977;28;20477;-70
2023/11/13 07:23:02;;;;;;;8.90;2.80;;;;;;;9.78;86.46;95685.91;5048561;28;20202;-70
2023/11/13 07:25:29;;;;;;;9.00;3.37;;;;;;;9.83;85.93;95683.03;5047553;28;20417;-70
2023/11/13 07:27:56;;;;;;;9.33;2.60;;;;;;;9.81;86.14;95684.88;5047712;28;20433;-72
2023/11/13 07:30:22;;;;;;;8.77;2.40;;;;;;;9.80;85.95;95693.66;5047689;28;20433;-70
2023/11/13 07:32:47;;;;;;;5.80;2.70;;;;;;;9.80;85.87;95696.28;5041436;28;20452;-70
2023/11/13 07:35:12;;;;;;;8.93;2.70;;;;;;;9.79;86.03;95703.31;5036277;28;20204;-71
2023/11/13 07:37:38;;;;;;;9.80;3.70;;;;;;;9.88;85.14;95707.22;5045602;28;20234;-70
2023/11/13 07:40:07;;;;;;;6.70;2.43;;;;;;;9.84;85.13;95705.69;5040875;28;20677;-69
2023/11/13 07:42:34;;;;;;;4.67;2.40;;;;;;;9.82;85.35;95703.13;5039742;28;20261;-71
2023/11/13 07:45:03;;;;;;;7.97;3.17;;;;;;;9.82;85.71;95707.53;5047962;28;20525;-71
2023/11/13 07:47:28;;;;;;;6.73;2.80;;;;;;;9.80;85.54;95719.88;5050411;28;20405;-69
2023/11/13 07:49:57;;;;;;;5.13;2.40;;;;;;;9.82;85.48;95725.88;5049578;28;20516;-70
2023/11/13 07:52:23;;;;;;;10.00;2.67;;;;;;;9.82;85.39;95726.72;5041238;28;20176;-71
2023/11/13 07:54:48;;;;;;;9.27;4.00;;;;;;;9.81;85.86;95743.38;5047582;28;20891;-68
2023/11/13 07:57:14;;;;;;;8.00;3.20;;;;;;;9.81;86.19;95753.84;5042454;28;20439;-70
2023/11/13 07:59:41;;;;;;;6.20;2.83;;;;;;;9.91;85.95;95762.09;5040047;28;20211;-71
2023/11/13 08:02:09;;;;;;;6.50;2.63;;;;;;;9.89;86.13;95761.31;5042651;28;20182;-70
2023/11/13 08:04:35;;;;;;;46.60;5.77;;;;;;;9.87;86.24;95761.38;5050275;28;20417;-71
2023/11/13 08:07:01;;;;;;;69.90;8.73;;;;;;;9.90;85.98;95747.31;5038738;28;20814;-72
2023/11/13 08:09:27;;;;;;;19.40;5.80;;;;;;;9.89;86.03;95745.59;5047977;28;20532;-70
2023/11/13 08:11:52;;;;;;;20.03;4.20;;;;;;;9.90;86.28;95726.34;5049713;28;20170;-71
2023/11/13 08:14:17;;;;;;;9.47;4.67;;;;;;;9.88;85.95;95750.00;5043403;28;20597;-70
2023/11/13 08:16:43;;;;;;;8.57;2.60;;;;;;;9.87;86.69;95721.25;5042815;28;20297;-70
2023/11/13 08:19:09;;;;;;;8.63;2.27;;;;;;;9.85;87.50;95751.91;5049123;28;20183;-71
2023/11/13 08:21:34;;;;;;;13.07;3.03;;;;;;;9.82;87.26;95739.81;5049479;28;20207;-70
2023/11/13 08:24:00;;;;;;;16.63;2.97;;;;;;;9.81;87.66;95721.56;5049993;28;20478;-72
2023/11/13 08:26:28;;;;;;;10.30;3.30;;;;;;;9.83;88.01;95725.81;5047400;28;20191;-71
2023/11/13 08:28:54;;;;;;;6.33;3.57;;;;;;;9.87;87.91;95732.56;5030170;28;20214;-71
2023/11/13 08:31:25;;;;;;;8.77;4.30;;;;;;;9.83;88.15;95727.59;5046251;28;20457;-71
2023/11/13 08:33:51;;;;;;;4.10;2.70;;;;;;;9.81;88.65;95726.81;5043888;28;20421;-71
2023/11/13 08:36:26;;;;;;;7.33;2.70;;;;;;;9.80;88.45;95728.56;5048605;28;20432;-70
2023/11/13 08:38:53;;;;;;;12.97;3.90;;;;;;;9.83;88.38;95738.06;5048658;28;20181;-70
2023/11/13 08:41:18;;;;;;;5.87;2.80;;;;;;;9.80;88.88;95730.34;5049077;28;20546;-71
2023/11/13 08:43:45;;;;;;;10.37;5.17;;;;;;;9.85;88.67;95739.69;5050783;28;20417;-71
2023/11/13 08:46:14;;;;;;;12.93;4.97;;;;;;;9.90;88.22;95735.03;5049828;28;20179;-71
2023/11/13 08:48:40;;;;;;;16.97;4.97;;;;;;;9.94;88.25;95735.72;5053019;28;21066;-72
2023/11/13 08:51:07;;;;;;;34.53;6.30;;;;;;;9.91;88.18;95734.09;5051461;28;20516;-70
2023/11/13 08:53:37;;;;;;;43.47;8.10;;;;;;;9.89;88.81;95725.47;5040747;28;20744;-70
2023/11/13 08:56:04;;;;;;;26.53;6.13;;;;;;;9.93;88.72;95721.78;5050247;28;20877;-71
2023/11/13 08:58:30;;;;;;;14.53;4.90;;;;;;;9.93;88.56;95727.00;5051504;28;20410;-70
2023/11/13 09:00:55;;;;;;;14.07;3.80;;;;;;;9.94;88.73;95723.47;5044802;28;20470;-70
2023/11/13 09:03:21;;;;;;;13.33;4.30;;;;;;;9.96;88.59;95729.47;5049412;28;20183;-71
2023/11/13 09:05:46;;;;;;;5.90;3.10;;;;;;;9.95;88.46;95719.91;5050819;28;20194;-71
2023/11/13 09:08:12;;;;;;;10.13;3.10;;;;;;;9.99;88.46;95711.88;5044626;28;20182;-70
2023/11/13 09:10:42;;;;;;;7.50;2.67;;;;;;;9.96;88.73;95711.13;5051622;28;20608;-71
2023/11/13 09:13:08;;;;;;;8.20;3.73;;;;;;;9.94;88.59;95723.47;5055139;28;20182;-70
2023/11/13 09:15:33;;;;;;;3.90;2.63;;;;;;;9.98;88.70;95728.56;5050802;28;20415;-70
2023/11/13 09:18:05;;;;;;;7.80;3.50;;;;;;;10.01;88.62;95715.28;5050671;28;20201;-70
2023/11/13 09:20:31;;;;;;;7.73;3.33;;;;;;;10.05;88.89;95703.72;5046038;28;20229;-70
2023/11/13 09:22:58;;;;;;;9.43;4.97;;;;;;;10.04;89.01;95705.50;5051478;28;20433;-71
2023/11/13 09:25:26;;;;;;;4.80;2.63;;;;;;;10.14;88.53;95703.22;5056454;28;20420;-69
2023/11/13 09:27:54;;;;;;;7.13;2.97;;;;;;;10.16;88.57;95702.22;5061179;28;20420;-71
2023/11/13 09:30:20;;;;;;;5.90;2.70;;;;;;;10.23;88.24;95699.25;5051784;28;20457;-71
2023/11/13 09:32:48;;;;;;;5.60;3.07;;;;;;;10.28;88.20;95692.88;5052323;28;20501;-71
2023/11/13 09:35:18;;;;;;;4.50;2.70;;;;;;;10.23;88.04;95691.38;5050776;28;20481;-70
2023/11/13 09:38:04;;;;;;;14.27;3.90;;;;;;;10.28;88.58;95692.00;5047028;28;20425;-69
2023/11/13 09:40:34;;;;;;;13.27;3.80;;;;;;;10.37;88.56;95702.88;5045844;28;20553;-70
2023/11/13 09:43:14;;;;;;;6.40;2.80;;;;;;;10.49;88.28;95687.41;5049293;28;20428;-72
2023/11/13 09:45:46;;;;;;;8.30;2.70;;;;;;;10.46;88.76;95692.78;5044099;28;20452;-71
2023/11/13 09:48:16;;;;;;;4.83;2.30;;;;;;;10.54;88.52;95680.97;5053648;28;20401;-70
2023/11/13 09:50:44;;;;;;;6.90;2.17;;;;;;;10.66;88.23;95671.56;5052908;28;20494;-71
2023/11/13 09:53:15;;;;;;;3.97;2.20;;;;;;;10.70;87.61;95664.34;5040439;28;20481;-69
2023/11/13 09:55:42;;;;;;;2.90;2.10;;;;;;;10.75;87.20;95671.06;5048168;28;20417;-71
2023/11/13 09:58:10;;;;;;;3.23;2.07;;;;;;;10.78;87.33;95668.25;5047983;28;20409;-70
2023/11/13 10:00:36;;;;;;;3.53;1.90;;;;;;;10.78;87.91;95670.88;5048071;28;21291;-70
2023/11/13 10:03:01;;;;;;;9.83;3.50;;;;;;;10.87;88.05;95660.78;5048461;28;20401;-70
2023/11/13 10:05:29;;;;;;;6.87;2.33;;;;;;;10.98;87.70;95661.88;5047825;28;20602;-71
2023/11/13 10:07:56;;;;;;;5.43;2.03;;;;;;;11.04;86.88;95659.81;5048021;28;20178;-71
2023/11/13 10:10:29;;;;;;;3.93;2.13;;;;;;;11.08;87.02;95653.44;5040145;28;20426;-71
2023/11/13 10:12:58;;;;;;;3.97;2.80;;;;;;;11.11;87.17;95662.00;5035416;28;20433;-70
2023/11/13 10:15:24;;;;;;;6.13;2.07;;;;;;;11.13;86.48;95662.75;5051671;28;20919;-69
2023/11/13 10:17:52;;;;;;;3.47;1.90;;;;;;;11.07;87.13;95657.84;5052519;28;20504;-69
2023/11/13 10:20:18;;;;;;;2.30;1.90;;;;;;;11.16;86.78;95656.50;5042135;28;20527;-69
2023/11/13 10:22:47;;;;;;;4.90;2.00;;;;;;;11.18;86.24;95654.63;5042806;28;20589;-70
2023/11/13 10:25:13;;;;;;;6.17;3.13;;;;;;;11.21;86.04;95649.19;5048769;28;20448;-71
2023/11/13 10:27:46;;;;;;;7.63;2.50;;;;;;;11.23;86.93;95658.66;5045366;28;20488;-70
2023/11/13 10:30:12;;;;;;;5.47;2.07;;;;;;;11.32;86.17;95652.03;5051003;28;20202;-70
2023/11/13 10:32:38;;;;;;;5.80;2.00;;;;;;;11.28;85.71;95649.66;5051468;28;20947;-69
2023/11/13 10:35:08;;;;;;;10.03;2.57;;;;;;;11.27;86.32;95634.81;5049742;28;20525;-69
2023/11/13 10:37:34;;;;;;;10.03;2.20;;;;;;;11.28;86.59;95626.03;5040827;28;20302;-68
2023/11/13 10:40:00;;;;;;;4.27;2.10;;;;;;;11.39;85.48;95634.97;5052256;28;20575;-71
2023/11/13 10:42:26;;;;;;;4.47;2.00;;;;;;;11.40;85.15;95631.41;5052993;28;20202;-68
2023/11/13 10:44:54;;;;;;;9.80;2.10;;;;;;;11.49;85.50;95634.44;5055495;28;20185;-71
2023/11/13 10:47:25;;;;;;;3.93;1.90;;;;;;;11.38;84.87;95645.56;5066779;28;20171;-71
2023/11/13 10:49:53;;;;;;;11.53;2.70;;;;;;;11.49;84.26;95637.88;5064175;28;20433;-71
2023/11/13 10:52:21;;;;;;;9.43;2.03;;;;;;;11.56;84.44;95627.88;5047245;28;20925;-70
2023/11/13 10:54:55;;;;;;;3.37;1.70;;;;;;;11.61;84.30;95624.00;5048055;28;20957;-70
2023/11/13 10:57:22;;;;;;;6.33;1.40;;;;;;;11.61;84.88;95617.91;5049291;28;20417;-70
2023/11/13 10:59:52;;;;;;;10.40;2.70;;;;;;;11.55;84.78;95611.25;5047951;28;20476;-71
2023/11/13 11:02:48;;;;;;;10.23;2.07;;;;;;;11.57;84.80;95613.78;5045932;28;20440;-71
2023/11/13 11:05:26;;;;;;;17.93;3.80;;;;;;;11.52;85.08;95610.59;5047039;28;20425;-70
2023/11/13 11:07:55;;;;;;;14.80;2.90;;;;;;;11.53;84.58;95610.50;5050969;28;20489;-71
2023/11/13 11:10:26;;;;;;;11.30;3.20;;;;;;;12.01;87.54;95605.81;5048141;28;20479;-69
2023/11/13 11:13:02;;;;;;;11.43;2.13;;;;;;;11.87;83.82;95595.31;5050887;28;20849;-71
2023/11/13 11:16:00;;;;;;;3.90;1.60;;;;;;;11.67;83.70;95588.66;5048054;28;20925;-68
2023/11/13 11:19:09;;;;;;;6.90;2.77;;;;;;;11.70;83.75;95583.19;5043508;28;20449;-70
2023/11/13 11:21:43;;;;;;;3.40;1.93;;;;;;;11.64;83.90;95578.31;5046899;28;20491;-69
2023/11/13 11:24:26;;;;;;;5.07;2.90;;;;;;;11.67;84.67;95578.13;5049974;28;20416;-69
2023/11/13 11:26:54;;;;;;;4.10;2.00;;;;;;;11.62;84.88;95586.31;5050367;28;20423;-71
2023/11/13 11:29:40;;;;;;;2.63;1.83;;;;;;;11.63;85.03;95595.84;5050493;28;20418;-69
2023/11/13 11:32:14;;;;;;;2.10;1.87;;;;;;;11.68;84.31;95576.34;5050581;28;20421;-71
2023/11/13 11:34:42;;;;;;;3.47;1.93;;;;;;;11.69;84.15;95576.22;5050132;28;20456;-69